Time;durP1;ratioP1;P1;durP2;ratioP2;P2;SDS_P1;SDS_P2;PMS_P1;PMS_P2;Temp;Humidity;BMP_temperature;BMP_pressure;BME280_temperature;BME280_humidity;BME280_pressure;Samples;Min_cycle;Max_cycle;Signal;HPM_P1;HPM_P2
2022/12/19 00:01:30;;;;;;;10.52;7.85;;;11.30;88.00;;;;;;5072963;28;20051;-82
2022/12/19 00:04:01;;;;;;;18.50;8.02;;;11.20;88.00;;;;;;5055503;28;20033;-81
2022/12/19 00:06:29;;;;;;;12.77;8.07;;;11.20;88.30;;;;;;5073144;28;20118;-80
2022/12/19 00:08:57;;;;;;;13.57;8.13;;;11.10;88.30;;;;;;5073310;28;20029;-81
2022/12/19 00:11:24;;;;;;;12.20;8.23;;;11.10;88.40;;;;;;5072932;28;20035;-82
2022/12/19 00:13:50;;;;;;;11.43;7.60;;;11.10;88.30;;;;;;5055454;28;20127;-81
2022/12/19 00:16:21;;;;;;;11.73;8.18;;;11.10;88.30;;;;;;5055827;28;20064;-80
2022/12/19 00:18:48;;;;;;;12.73;8.55;;;11.20;87.80;;;;;;5056081;28;20036;-81
2022/12/19 00:21:18;;;;;;;12.10;8.05;;;11.10;88.20;;;;;;5073226;28;20483;-81
2022/12/19 00:23:44;;;;;;;11.43;8.30;;;11.20;88.50;;;;;;5055053;28;20036;-81
2022/12/19 00:26:13;;;;;;;11.70;8.05;;;11.20;88.70;;;;;;5055041;28;20056;-81
2022/12/19 00:28:40;;;;;;;14.48;8.45;;;11.20;88.20;;;;;;5055007;28;20036;-81
2022/12/19 00:31:06;;;;;;;12.30;8.55;;;11.20;88.50;;;;;;5072322;28;20381;-81
2022/12/19 00:33:32;;;;;;;12.13;8.20;;;11.20;88.50;;;;;;5070927;28;20123;-80
2022/12/19 00:35:59;;;;;;;15.18;8.15;;;11.20;88.50;;;;;;5072262;28;20107;-81
2022/12/19 00:38:25;;;;;;;11.82;8.38;;;11.20;88.80;;;;;;5072589;28;20033;-81
2022/12/19 00:40:51;;;;;;;12.13;8.77;;;11.20;88.30;;;;;;5072525;28;20040;-80
2022/12/19 00:43:16;;;;;;;12.55;8.35;;;11.10;88.20;;;;;;5054373;28;20043;-81
2022/12/19 00:45:42;;;;;;;12.60;8.60;;;11.10;88.80;;;;;;5072233;28;20051;-80
2022/12/19 00:48:08;;;;;;;12.20;8.45;;;11.10;88.50;;;;;;5054177;28;20452;-80
2022/12/19 00:50:33;;;;;;;15.23;8.93;;;11.10;88.60;;;;;;5054136;28;20029;-80
2022/12/19 00:52:59;;;;;;;15.73;8.07;;;11.10;88.60;;;;;;5072191;28;20105;-80
2022/12/19 00:55:25;;;;;;;10.23;8.15;;;11.00;88.50;;;;;;5072602;28;20126;-80
2022/12/19 00:57:51;;;;;;;10.52;7.90;;;11.00;88.60;;;;;;5072256;28;20025;-81
2022/12/19 01:00:17;;;;;;;12.75;8.38;;;11.00;88.80;;;;;;5072407;28;20033;-80
2022/12/19 01:02:43;;;;;;;11.30;8.30;;;11.00;88.50;;;;;;5072206;28;20045;-82
2022/12/19 01:05:09;;;;;;;12.50;8.10;;;11.00;89.00;;;;;;5054173;28;20124;-81
2022/12/19 01:07:36;;;;;;;10.88;8.00;;;11.00;88.70;;;;;;5054319;28;20082;-81
2022/12/19 01:10:02;;;;;;;10.40;7.63;;;11.00;88.60;;;;;;5054623;28;20074;-82
2022/12/19 01:12:46;;;;;;;11.82;8.38;;;11.00;88.80;;;;;;5074204;28;20040;-82
2022/12/19 01:15:17;;;;;;;10.20;7.13;;;11.00;88.40;;;;;;5075989;28;20466;-81
2022/12/19 01:17:43;;;;;;;11.32;7.85;;;10.90;87.90;;;;;;5075811;28;20500;-80
2022/12/19 01:20:09;;;;;;;13.43;7.28;;;10.90;88.50;;;;;;5057617;28;20033;-81
2022/12/19 01:22:35;;;;;;;10.70;7.82;;;10.90;88.40;;;;;;5076141;28;20094;-81
2022/12/19 01:25:01;;;;;;;11.23;8.25;;;10.90;88.60;;;;;;5075825;28;20033;-79
2022/12/19 01:27:27;;;;;;;12.93;7.85;;;10.90;88.70;;;;;;5057370;28;20040;-80
2022/12/19 01:29:53;;;;;;;10.57;7.18;;;10.80;88.30;;;;;;5057769;28;20035;-81
2022/12/19 01:32:19;;;;;;;13.07;7.72;;;10.70;88.30;;;;;;5075634;28;20032;-81
2022/12/19 01:34:45;;;;;;;11.88;8.10;;;10.70;88.80;;;;;;5075732;28;20102;-80
2022/12/19 01:37:10;;;;;;;11.02;7.55;;;10.80;88.80;;;;;;5057952;28;20079;-81
2022/12/19 01:39:36;;;;;;;13.18;7.90;;;10.70;88.90;;;;;;5075495;28;20123;-81
2022/12/19 01:42:02;;;;;;;13.07;7.97;;;10.70;88.60;;;;;;5057260;28;20056;-80
2022/12/19 01:44:27;;;;;;;10.85;7.47;;;10.60;88.70;;;;;;5074284;28;20071;-81
2022/12/19 01:46:59;;;;;;;9.73;7.43;;;10.60;89.00;;;;;;5057492;28;20048;-80
2022/12/19 01:49:33;;;;;;;9.60;7.65;;;10.70;89.00;;;;;;5073950;28;20159;-80
2022/12/19 01:52:03;;;;;;;13.02;7.75;;;10.60;89.00;;;;;;5057469;28;20059;-81
2022/12/19 01:54:33;;;;;;;9.77;7.30;;;10.60;89.10;;;;;;5075694;28;20028;-81
2022/12/19 01:57:01;;;;;;;9.48;7.32;;;10.50;89.10;;;;;;5075374;28;20032;-80
2022/12/19 01:59:36;;;;;;;12.30;8.07;;;10.50;89.20;;;;;;5075562;28;20609;-84
2022/12/19 02:02:40;;;;;;;10.55;7.60;;;10.50;89.30;;;;;;5057476;28;20045;-82
2022/12/19 02:05:06;;;;;;;12.20;7.82;;;10.50;88.80;;;;;;5072340;28;20392;-81
2022/12/19 02:07:32;;;;;;;11.50;8.00;;;10.40;89.00;;;;;;5076324;28;20028;-80
2022/12/19 02:09:58;;;;;;;13.43;7.75;;;10.40;89.30;;;;;;5057498;28;20443;-83
2022/12/19 02:12:27;;;;;;;12.82;7.72;;;10.40;89.60;;;;;;5074857;28;20049;-82
2022/12/19 02:14:55;;;;;;;9.77;7.40;;;10.40;89.60;;;;;;5073635;28;20041;-80
2022/12/19 02:17:40;;;;;;;13.88;8.18;;;10.30;89.50;;;;;;5073421;28;20062;-80
2022/12/19 02:20:38;;;;;;;11.80;7.88;;;10.30;89.50;;;;;;5056687;28;20033;-80
2022/12/19 02:23:22;;;;;;;11.57;7.40;;;10.30;89.40;;;;;;5048454;28;20043;-80
2022/12/19 02:26:09;;;;;;;11.52;7.43;;;10.20;89.50;;;;;;5074014;28;20413;-81
2022/12/19 02:28:58;;;;;;;11.07;6.93;;;10.20;89.40;;;;;;5073202;28;20447;-82
2022/12/19 02:31:27;;;;;;;12.15;7.20;;;10.20;89.80;;;;;;5062321;28;20463;-82
2022/12/19 02:34:02;;;;;;;11.35;7.63;;;10.20;89.60;;;;;;5076653;28;20376;-81
2022/12/19 02:36:39;;;;;;;10.07;7.72;;;10.10;89.40;;;;;;5076577;28;20028;-81
2022/12/19 02:39:15;;;;;;;10.30;7.40;;;10.00;89.30;;;;;;5076394;28;20036;-80
2022/12/19 02:41:55;;;;;;;12.52;7.60;;;10.00;89.40;;;;;;5076583;28;20047;-80
2022/12/19 02:44:31;;;;;;;9.80;7.68;;;9.90;90.20;;;;;;5076209;28;20075;-80
2022/12/19 02:46:59;;;;;;;11.30;8.00;;;9.90;90.10;;;;;;5099282;28;20032;-83
2022/12/19 02:49:28;;;;;;;11.18;7.35;;;9.90;90.30;;;;;;5094638;28;20115;-80
2022/12/19 02:51:53;;;;;;;11.63;7.00;;;9.90;90.40;;;;;;5099080;28;20136;-82
2022/12/19 02:54:19;;;;;;;12.65;7.65;;;9.80;90.30;;;;;;5092016;28;20032;-81
2022/12/19 02:56:58;;;;;;;12.10;7.28;;;9.90;90.40;;;;;;5116829;28;20120;-81
2022/12/19 02:59:33;;;;;;;8.95;7.00;;;9.90;90.30;;;;;;5088499;28;20132;-81
2022/12/19 03:02:31;;;;;;;9.73;6.72;;;10.00;90.00;;;;;;5094408;28;20050;-81
2022/12/19 03:05:03;;;;;;;8.98;7.03;;;10.00;89.80;;;;;;5076138;28;20408;-81
2022/12/19 03:07:38;;;;;;;10.40;6.63;;;10.00;89.70;;;;;;5094022;28;20036;-81
2022/12/19 03:10:37;;;;;;;12.38;7.15;;;10.00;89.70;;;;;;5094260;28;20085;-81
2022/12/19 03:13:16;;;;;;;10.90;7.75;;;10.00;89.60;;;;;;5094127;28;20035;-82
2022/12/19 03:15:43;;;;;;;9.90;7.05;;;10.00;90.00;;;;;;5075607;28;20036;-82
2022/12/19 03:18:09;;;;;;;12.27;7.43;;;10.10;90.30;;;;;;5093707;28;20031;-82
2022/12/19 03:20:48;;;;;;;11.93;7.15;;;10.10;90.00;;;;;;5093842;28;20036;-81
2022/12/19 03:23:15;;;;;;;11.60;7.18;;;10.10;89.70;;;;;;5093883;28;20065;-81
2022/12/19 03:25:44;;;;;;;12.20;7.80;;;10.10;90.00;;;;;;5093685;28;20154;-81
2022/12/19 03:28:18;;;;;;;11.35;7.60;;;10.10;90.00;;;;;;5093575;28;20051;-80
2022/12/19 03:30:45;;;;;;;10.10;5.53;;;10.10;90.00;;;;;;5075315;28;20039;-81
2022/12/19 03:33:15;;;;;;;10.30;6.85;;;10.10;89.80;;;;;;5093649;28;20036;-81
2022/12/19 03:35:43;;;;;;;12.18;7.43;;;10.00;90.00;;;;;;5093326;28;20040;-81
2022/12/19 03:38:11;;;;;;;11.20;7.43;;;10.00;90.00;;;;;;5075160;28;20388;-80
2022/12/19 03:40:42;;;;;;;9.73;6.97;;;10.00;90.10;;;;;;5093567;28;20081;-81
2022/12/19 03:43:09;;;;;;;10.50;7.30;;;10.00;90.00;;;;;;5075691;28;20036;-81
2022/12/19 03:45:51;;;;;;;10.85;7.10;;;9.90;90.40;;;;;;5091898;28;20030;-82
2022/12/19 03:48:27;;;;;;;11.98;7.30;;;9.80;90.30;;;;;;5092364;28;20047;-82
2022/12/19 03:51:26;;;;;;;11.73;7.72;;;9.80;90.40;;;;;;5093722;28;20032;-81
2022/12/19 03:53:59;;;;;;;9.85;7.25;;;9.80;90.50;;;;;;5075370;28;20159;-81
2022/12/19 03:56:45;;;;;;;10.55;7.30;;;9.80;90.50;;;;;;5074860;28;20124;-81
2022/12/19 03:59:37;;;;;;;9.75;6.90;;;9.80;90.40;;;;;;5092899;28;20042;-82
2022/12/19 04:02:04;;;;;;;13.15;8.00;;;9.70;90.40;;;;;;5093001;28;20048;-80
2022/12/19 04:04:33;;;;;;;11.45;7.70;;;9.70;90.50;;;;;;5093046;28;20129;-82
2022/12/19 04:07:02;;;;;;;10.82;7.50;;;9.70;90.70;;;;;;5092839;28;20031;-80
2022/12/19 04:09:29;;;;;;;10.07;6.78;;;9.70;90.50;;;;;;5074897;28;20043;-83
2022/12/19 04:12:00;;;;;;;9.55;7.03;;;9.70;90.50;;;;;;5092069;28;20142;-80
2022/12/19 04:14:33;;;;;;;12.15;7.45;;;9.70;90.60;;;;;;5074991;28;20518;-82
2022/12/19 04:17:38;;;;;;;11.95;7.70;;;9.80;90.40;;;;;;5093012;28;20032;-82
2022/12/19 04:20:03;;;;;;;;;;;9.80;90.30;;;;;;5074975;28;20124;-81
2022/12/19 04:22:44;;;;;;;11.02;7.28;;;9.70;90.50;;;;;;5092772;28;20351;-82
2022/12/19 04:25:14;;;;;;;9.73;6.90;;;9.70;90.30;;;;;;5092562;28;20103;-80
2022/12/19 04:27:46;;;;;;;10.15;6.97;;;9.70;90.50;;;;;;5074421;28;20032;-79
2022/12/19 04:30:14;;;;;;;9.75;7.28;;;9.60;90.50;;;;;;5074969;28;20178;-81
2022/12/19 04:32:41;;;;;;;11.15;7.35;;;9.50;90.50;;;;;;5093509;28;20028;-82
2022/12/19 04:35:08;;;;;;;9.75;7.53;;;9.50;90.50;;;;;;5092575;28;20102;-80
2022/12/19 04:37:34;;;;;;;11.27;7.15;;;9.50;90.60;;;;;;5074538;28;20556;-81
2022/12/19 04:40:00;;;;;;;10.00;7.32;;;9.40;90.50;;;;;;5074560;28;20024;-80
2022/12/19 04:42:25;;;;;;;11.30;7.82;;;9.40;90.70;;;;;;5074089;28;20518;-79
2022/12/19 04:44:51;;;;;;;11.27;7.80;;;9.40;90.60;;;;;;5074422;28;20197;-81
2022/12/19 04:47:17;;;;;;;11.90;7.90;;;9.50;90.60;;;;;;5075505;28;20564;-81
2022/12/19 04:49:43;;;;;;;12.02;7.53;;;9.50;90.70;;;;;;5096617;28;20111;-80
2022/12/19 04:52:09;;;;;;;11.70;7.45;;;9.50;90.70;;;;;;5096678;28;20072;-81
2022/12/19 04:54:35;;;;;;;12.82;8.13;;;9.50;90.60;;;;;;5078375;28;20153;-79
2022/12/19 04:57:00;;;;;;;11.20;7.65;;;9.50;90.60;;;;;;5097126;28;20047;-80
2022/12/19 04:59:26;;;;;;;11.18;8.15;;;9.50;90.60;;;;;;5078214;28;20024;-81
2022/12/19 05:01:52;;;;;;;10.38;7.55;;;9.40;90.50;;;;;;5096536;28;20406;-80
2022/12/19 05:04:18;;;;;;;11.90;7.28;;;9.40;90.60;;;;;;5078658;28;20028;-81
2022/12/19 05:06:43;;;;;;;12.00;7.65;;;9.50;90.70;;;;;;5096320;28;20111;-80
2022/12/19 05:09:10;;;;;;;9.68;7.30;;;9.50;90.80;;;;;;5096198;28;20024;-79
2022/12/19 05:11:36;;;;;;;9.88;7.43;;;9.50;90.70;;;;;;5077931;28;20123;-82
2022/12/19 05:14:02;;;;;;;9.70;7.00;;;9.50;90.80;;;;;;5077959;28;20576;-81
2022/12/19 05:16:28;;;;;;;11.20;7.63;;;9.50;90.70;;;;;;5095898;28;20395;-80
2022/12/19 05:18:54;;;;;;;12.00;7.57;;;9.40;90.60;;;;;;5096250;28;20025;-81
2022/12/19 05:21:21;;;;;;;10.45;7.32;;;9.30;90.70;;;;;;5096206;28;20039;-81
2022/12/19 05:23:48;;;;;;;11.57;7.53;;;9.30;90.80;;;;;;5078008;28;20487;-80
2022/12/19 05:26:14;;;;;;;12.43;8.30;;;9.30;90.90;;;;;;5096088;28;20495;-79
2022/12/19 05:28:40;;;;;;;9.70;7.45;;;9.30;90.70;;;;;;5095986;28;20065;-78
2022/12/19 05:31:08;;;;;;;10.80;7.63;;;9.30;90.90;;;;;;5094490;28;20085;-81
2022/12/19 05:33:34;;;;;;;13.15;8.02;;;9.30;90.90;;;;;;5096252;28;20040;-81
2022/12/19 05:36:00;;;;;;;11.30;7.30;;;9.30;90.80;;;;;;5095873;28;20032;-80
2022/12/19 05:38:26;;;;;;;9.68;7.22;;;9.30;90.80;;;;;;5095619;28;20073;-80
2022/12/19 05:40:52;;;;;;;12.30;8.07;;;9.30;90.80;;;;;;5077490;28;20036;-80
2022/12/19 05:43:18;;;;;;;11.80;7.95;;;9.30;90.90;;;;;;5096260;28;20430;-82
2022/12/19 05:45:44;;;;;;;13.07;7.72;;;9.30;90.80;;;;;;5078000;28;20040;-80
2022/12/19 05:48:10;;;;;;;10.63;7.80;;;9.30;90.80;;;;;;5095857;28;20111;-82
2022/12/19 05:50:35;;;;;;;9.90;7.40;;;9.20;90.80;;;;;;5095621;28;20028;-82
2022/12/19 05:53:01;;;;;;;11.32;8.00;;;9.20;90.90;;;;;;5078347;28;20372;-80
2022/12/19 05:55:27;;;;;;;12.02;7.53;;;9.20;90.90;;;;;;5096309;28;20422;-83
2022/12/19 05:57:52;;;;;;;10.75;8.07;;;9.20;90.80;;;;;;5077524;28;20028;-82
2022/12/19 06:00:18;;;;;;;12.02;8.05;;;9.10;90.80;;;;;;5081514;28;20502;-82
2022/12/19 06:02:44;;;;;;;13.95;8.68;;;9.10;90.70;;;;;;5102032;28;20040;-80
2022/12/19 06:05:10;;;;;;;12.30;8.02;;;9.10;91.00;;;;;;5079727;28;20111;-82
2022/12/19 06:07:35;;;;;;;11.35;7.55;;;9.10;91.10;;;;;;5101574;28;20433;-81
2022/12/19 06:10:01;;;;;;;10.70;7.97;;;9.00;90.80;;;;;;5096817;28;20083;-81
2022/12/19 06:12:27;;;;;;;10.38;7.68;;;9.10;90.90;;;;;;5077608;28;20039;-82
2022/12/19 06:14:52;;;;;;;11.35;7.53;;;9.00;91.00;;;;;;5077306;28;20151;-83
2022/12/19 06:17:18;;;;;;;10.98;7.57;;;9.10;90.90;;;;;;5077563;28;20036;-83
2022/12/19 06:19:44;;;;;;;13.48;7.47;;;9.10;91.00;;;;;;5077006;28;20500;-81
2022/12/19 06:22:10;;;;;;;12.75;7.63;;;9.10;90.90;;;;;;5095011;28;20483;-81
2022/12/19 06:24:35;;;;;;;11.63;7.95;;;9.00;90.60;;;;;;5094930;28;20039;-82
2022/12/19 06:27:01;;;;;;;11.27;7.70;;;9.00;91.00;;;;;;5094979;28;20540;-80
2022/12/19 06:29:27;;;;;;;12.93;8.25;;;8.90;91.00;;;;;;5076750;28;20391;-82
2022/12/19 06:31:53;;;;;;;10.73;7.65;;;8.90;91.00;;;;;;5094904;28;20028;-82
2022/12/19 06:34:18;;;;;;;12.05;7.55;;;8.90;91.00;;;;;;5076721;28;20032;-82
2022/12/19 06:36:44;;;;;;;12.65;7.65;;;8.90;91.00;;;;;;5094840;28;20028;-81
2022/12/19 06:39:14;;;;;;;13.38;7.85;;;9.00;91.30;;;;;;5076986;28;20068;-82
2022/12/19 06:44:25;;;;;;;12.48;7.82;;;9.00;91.20;;;;;;5095807;28;20043;-84
2022/12/19 06:46:52;;;;;;;12.25;7.88;;;9.00;91.10;;;;;;5095084;28;20036;-82
2022/12/19 06:49:18;;;;;;;10.73;7.45;;;9.00;91.10;;;;;;5094229;28;20066;-82
2022/12/19 06:51:45;;;;;;;12.98;7.80;;;9.00;91.10;;;;;;5094424;28;20078;-82
2022/12/19 06:54:11;;;;;;;12.65;7.88;;;9.00;91.10;;;;;;5094525;28;20111;-83
2022/12/19 06:56:38;;;;;;;12.25;7.80;;;9.10;91.10;;;;;;5076205;28;20080;-82
2022/12/19 06:59:06;;;;;;;11.20;7.72;;;9.10;91.10;;;;;;5093505;28;20032;-81
2022/12/19 07:02:03;;;;;;;11.63;7.25;;;9.10;91.00;;;;;;5094745;28;20044;-83
2022/12/19 07:04:37;;;;;;;11.57;7.93;;;9.20;90.50;;;;;;5077096;28;20043;-83
2022/12/19 07:07:03;;;;;;;13.80;8.10;;;9.30;91.10;;;;;;5076806;28;20039;-83
2022/12/19 07:09:30;;;;;;;13.25;7.75;;;9.40;90.60;;;;;;5094475;28;20036;-85
2022/12/19 07:11:56;;;;;;;12.02;7.22;;;9.50;90.80;;;;;;5095116;28;20032;-82
2022/12/19 07:14:22;;;;;;;11.05;8.10;;;9.50;90.60;;;;;;5094121;28;20040;-76
2022/12/19 07:16:50;;;;;;;13.05;7.35;;;9.60;90.50;;;;;;5094379;28;20028;-81
2022/12/19 07:19:17;;;;;;;12.32;8.13;;;9.60;90.40;;;;;;5076069;28;20395;-78
2022/12/19 07:21:43;;;;;;;14.00;8.35;;;9.70;90.70;;;;;;5093940;28;20032;-79
2022/12/19 07:24:11;;;;;;;14.52;7.45;;;9.70;90.50;;;;;;5075818;28;20028;-81
2022/12/19 07:26:37;;;;;;;12.40;7.53;;;9.80;90.50;;;;;;5076438;28;20086;-82
2022/12/19 07:29:03;;;;;;;12.40;7.60;;;9.80;90.30;;;;;;5094427;28;20063;-82
2022/12/19 07:31:29;;;;;;;11.25;7.63;;;9.80;90.20;;;;;;5093710;28;20107;-77
2022/12/19 07:33:54;;;;;;;9.77;7.10;;;9.90;90.30;;;;;;5075461;28;20036;-77
2022/12/19 07:36:20;;;;;;;12.00;7.22;;;10.00;89.50;;;;;;5075446;28;20040;-77
2022/12/19 07:38:46;;;;;;;11.40;7.60;;;9.90;89.80;;;;;;5075241;28;20483;-77
2022/12/19 07:41:12;;;;;;;11.82;7.63;;;9.90;90.00;;;;;;5075114;28;20527;-78
2022/12/19 07:43:37;;;;;;;11.95;7.45;;;9.90;90.00;;;;;;5075134;28;20407;-77
2022/12/19 07:46:03;;;;;;;12.32;7.05;;;9.80;89.20;;;;;;5093584;28;20036;-79
2022/12/19 07:48:30;;;;;;;13.35;7.45;;;9.80;89.80;;;;;;5093437;28;20036;-76
2022/12/19 07:50:55;;;;;;;10.18;7.28;;;9.80;89.60;;;;;;5074804;28;20102;-77
2022/12/19 07:53:21;;;;;;;10.45;7.57;;;9.80;89.50;;;;;;5093172;28;20031;-76
2022/12/19 07:55:50;;;;;;;10.52;7.15;;;9.70;89.60;;;;;;5093464;28;20033;-77
2022/12/19 07:58:16;;;;;;;12.68;7.85;;;9.70;89.80;;;;;;5091705;28;20028;-77
2022/12/19 08:00:42;;;;;;;13.02;7.88;;;9.70;90.00;;;;;;5092770;28;20028;-77
2022/12/19 08:03:07;;;;;;;12.90;7.50;;;9.70;89.60;;;;;;5093228;28;20438;-78
2022/12/19 08:05:33;;;;;;;12.13;7.00;;;9.70;89.70;;;;;;5092895;28;20059;-80
2022/12/19 08:07:59;;;;;;;11.32;7.90;;;9.70;89.80;;;;;;5075003;28;20058;-80
2022/12/19 08:10:25;;;;;;;15.10;8.20;;;9.60;89.50;;;;;;5094918;28;20539;-76
2022/12/19 08:12:50;;;;;;;13.68;8.57;;;9.60;89.80;;;;;;5074924;28;20119;-79
2022/12/19 08:15:17;;;;;;;11.82;8.05;;;9.60;89.40;;;;;;5074796;28;20060;-77
2022/12/19 08:17:42;;;;;;;13.38;8.27;;;9.70;89.90;;;;;;5092798;28;20085;-77
2022/12/19 08:20:12;;;;;;;12.63;8.25;;;9.70;89.30;;;;;;5092780;28;20028;-78
2022/12/19 08:22:38;;;;;;;13.88;7.75;;;9.70;89.50;;;;;;5073637;28;20048;-79
2022/12/19 08:25:05;;;;;;;11.20;7.82;;;9.80;89.40;;;;;;5093271;28;20054;-78
2022/12/19 08:27:31;;;;;;;11.65;7.80;;;9.80;89.80;;;;;;5074959;28;20067;-78
2022/12/19 08:29:57;;;;;;;10.80;7.20;;;9.80;89.40;;;;;;5074825;28;20489;-78
2022/12/19 08:32:23;;;;;;;11.27;7.60;;;9.80;89.50;;;;;;5092467;28;20071;-78
2022/12/19 08:34:49;;;;;;;22.42;8.27;;;9.90;89.70;;;;;;5092568;28;20476;-78
2022/12/19 08:37:14;;;;;;;12.57;7.93;;;10.00;88.50;;;;;;5092386;28;20032;-79
2022/12/19 08:39:40;;;;;;;16.15;7.70;;;10.00;88.40;;;;;;5073980;28;20031;-72
2022/12/19 08:42:06;;;;;;;11.45;7.80;;;10.10;88.40;;;;;;5074024;28;20150;-77
2022/12/19 08:44:31;;;;;;;13.73;7.72;;;10.10;88.70;;;;;;5092446;28;20368;-76
2022/12/19 08:46:57;;;;;;;13.07;7.70;;;10.20;88.40;;;;;;5093249;28;20125;-76
2022/12/19 08:49:24;;;;;;;22.10;8.65;;;10.20;88.10;;;;;;5092676;28;20479;-78
2022/12/19 08:51:50;;;;;;;15.50;8.07;;;10.20;87.30;;;;;;5092949;28;20040;-77
2022/12/19 08:54:15;;;;;;;14.25;8.32;;;10.30;88.20;;;;;;5074266;28;20051;-78
2022/12/19 08:56:41;;;;;;;12.43;7.47;;;10.40;88.00;;;;;;5074368;28;20039;-78
2022/12/19 08:59:07;;;;;;;10.73;7.25;;;10.40;87.80;;;;;;5092115;28;20450;-78
2022/12/19 09:01:33;;;;;;;13.57;7.63;;;10.50;87.70;;;;;;5074354;28;20052;-77
2022/12/19 09:03:59;;;;;;;12.00;6.50;;;10.60;87.80;;;;;;5077871;28;20032;-77
2022/12/19 09:06:25;;;;;;;11.00;7.68;;;10.60;87.70;;;;;;5076827;28;20066;-77
2022/12/19 09:08:51;;;;;;;12.85;7.60;;;10.70;87.40;;;;;;5075798;28;20067;-77
2022/12/19 09:11:19;;;;;;;10.55;7.35;;;10.80;87.70;;;;;;5092382;28;20480;-79
2022/12/19 09:13:46;;;;;;;11.52;7.82;;;10.90;87.70;;;;;;5092315;28;20111;-78
2022/12/19 09:16:20;;;;;;;10.48;7.45;;;10.90;87.30;;;;;;5073752;28;20024;-78
2022/12/19 09:18:50;;;;;;;12.05;7.28;;;11.00;87.40;;;;;;5091833;28;20036;-78
2022/12/19 09:21:22;;;;;;;14.15;7.40;;;11.00;87.00;;;;;;5090437;28;20089;-78
2022/12/19 09:23:50;;;;;;;9.65;6.80;;;11.10;87.20;;;;;;5073661;28;20089;-78
2022/12/19 09:26:17;;;;;;;11.05;6.82;;;11.10;86.90;;;;;;5091854;28;20048;-77
2022/12/19 09:28:44;;;;;;;11.90;6.55;;;11.20;86.70;;;;;;5090664;28;20112;-79
2022/12/19 09:31:15;;;;;;;12.00;6.88;;;11.20;86.60;;;;;;5073727;28;20036;-78
2022/12/19 09:33:42;;;;;;;12.38;6.93;;;11.30;86.30;;;;;;5093290;28;20086;-79
2022/12/19 09:36:15;;;;;;;10.63;6.65;;;11.30;85.90;;;;;;5094656;28;20500;-78
2022/12/19 09:38:42;;;;;;;13.60;7.22;;;11.30;85.20;;;;;;5094949;28;20028;-77
2022/12/19 09:41:29;;;;;;;12.60;7.07;;;11.40;86.30;;;;;;5094260;28;20032;-78
2022/12/19 09:44:19;;;;;;;11.20;7.18;;;11.50;85.20;;;;;;5095568;28;20097;-78
2022/12/19 09:46:59;;;;;;;11.48;6.47;;;11.60;84.50;;;;;;5077340;28;20028;-79
2022/12/19 09:49:31;;;;;;;10.00;6.03;;;11.60;85.40;;;;;;5077298;28;20086;-77
2022/12/19 09:52:16;;;;;;;11.98;6.40;;;11.70;85.10;;;;;;5095792;28;20028;-79
2022/12/19 09:54:51;;;;;;;9.63;6.18;;;11.80;83.90;;;;;;5095793;28;20114;-78
2022/12/19 09:57:22;;;;;;;13.38;6.57;;;12.00;84.00;;;;;;5078937;28;20040;-78
2022/12/19 09:59:55;;;;;;;10.35;5.60;;;12.10;84.70;;;;;;5095631;28;20039;-78
2022/12/19 10:02:32;;;;;;;9.00;5.60;;;12.20;84.10;;;;;;5095369;28;20472;-78
2022/12/19 10:05:25;;;;;;;10.63;5.65;;;12.30;83.30;;;;;;5077016;28;20714;-80
2022/12/19 10:07:52;;;;;;;7.57;4.93;;;12.40;83.00;;;;;;5076913;28;20089;-78
2022/12/19 10:10:29;;;;;;;9.68;6.05;;;12.50;83.20;;;;;;5076966;28;20066;-78
2022/12/19 10:12:58;;;;;;;8.77;5.40;;;12.50;82.70;;;;;;5077140;28;20044;-77
2022/12/19 10:15:55;;;;;;;10.02;6.97;;;12.50;82.90;;;;;;5076975;28;20048;-77
2022/12/19 10:18:32;;;;;;;11.00;6.20;;;12.60;82.80;;;;;;5088472;28;20513;-77
2022/12/19 10:21:42;;;;;;;11.27;5.63;;;12.60;82.70;;;;;;5094807;28;20028;-77
2022/12/19 10:24:14;;;;;;;10.98;6.60;;;12.70;82.70;;;;;;5049635;28;20411;-78
2022/12/19 10:26:52;;;;;;;8.68;6.00;;;12.80;82.50;;;;;;5095201;28;20474;-79
2022/12/19 10:29:46;;;;;;;10.25;5.80;;;12.80;82.30;;;;;;5095118;28;20036;-76
2022/12/19 10:32:19;;;;;;;11.80;6.90;;;12.90;81.80;;;;;;5092121;28;20134;-77
2022/12/19 10:34:46;;;;;;;11.07;6.05;;;12.90;82.10;;;;;;5095022;28;20525;-76
2022/12/19 10:37:35;;;;;;;10.57;6.60;;;12.90;81.80;;;;;;5076749;28;20502;-77
2022/12/19 10:40:12;;;;;;;15.68;6.68;;;13.00;81.90;;;;;;5076383;28;20039;-78
2022/12/19 10:42:52;;;;;;;12.07;7.30;;;13.10;81.60;;;;;;5094566;28;20044;-78
2022/12/19 10:45:20;;;;;;;13.23;6.70;;;13.10;81.70;;;;;;5093913;28;20097;-78
2022/12/19 10:47:57;;;;;;;14.80;7.22;;;13.20;81.30;;;;;;5097315;28;20419;-78
2022/12/19 10:50:29;;;;;;;12.93;7.57;;;13.30;81.10;;;;;;5077716;28;20028;-79
2022/12/19 10:53:03;;;;;;;14.82;6.93;;;13.30;81.10;;;;;;5093327;28;20074;-75
2022/12/19 10:55:48;;;;;;;12.43;6.53;;;13.50;81.10;;;;;;5094161;28;20066;-78
2022/12/19 10:58:41;;;;;;;9.65;6.03;;;13.50;80.90;;;;;;5092668;28;20039;-77
2022/12/19 11:01:32;;;;;;;11.02;6.05;;;13.60;80.80;;;;;;5094228;28;20046;-78
2022/12/19 11:04:31;;;;;;;10.50;6.32;;;13.70;80.70;;;;;;5075585;28;20097;-78
2022/12/19 11:07:03;;;;;;;9.30;6.50;;;13.80;80.20;;;;;;5093871;28;20031;-79
2022/12/19 11:09:29;;;;;;;14.60;6.80;;;13.80;79.40;;;;;;5075530;28;20059;-79
2022/12/19 11:12:05;;;;;;;9.82;6.00;;;13.90;79.50;;;;;;5093973;28;20043;-79
2022/12/19 11:14:32;;;;;;;12.32;6.55;;;13.90;79.60;;;;;;5094399;28;20168;-79
2022/12/19 11:16:58;;;;;;;10.70;5.82;;;13.90;79.40;;;;;;5092704;28;20035;-79
2022/12/19 11:19:30;;;;;;;10.63;5.78;;;13.90;79.30;;;;;;5076051;28;20028;-79
2022/12/19 11:22:18;;;;;;;13.18;6.00;;;13.90;79.00;;;;;;5094211;28;20456;-78
2022/12/19 11:24:48;;;;;;;9.30;6.00;;;14.00;79.30;;;;;;5075682;28;20115;-80
2022/12/19 11:27:36;;;;;;;12.13;6.22;;;14.00;78.60;;;;;;5075671;28;20511;-79
2022/12/19 11:30:18;;;;;;;12.52;5.30;;;14.00;78.40;;;;;;5093607;28;20043;-79
2022/12/19 11:32:46;;;;;;;12.02;5.47;;;14.00;78.40;;;;;;5075576;28;20063;-78
2022/12/19 11:35:25;;;;;;;11.13;5.78;;;14.10;78.30;;;;;;5093793;28;20028;-78
2022/12/19 11:37:58;;;;;;;10.23;5.80;;;14.20;78.10;;;;;;5075626;28;20036;-79
2022/12/19 11:40:37;;;;;;;10.20;5.80;;;14.30;78.00;;;;;;5075474;28;20113;-79
2022/12/19 11:43:06;;;;;;;10.20;5.97;;;14.40;78.20;;;;;;5093474;28;20426;-80
2022/12/19 11:45:50;;;;;;;12.25;5.70;;;14.50;78.10;;;;;;5093673;28;20171;-79
2022/12/19 11:48:44;;;;;;;9.45;5.65;;;14.50;77.70;;;;;;5075171;28;20119;-80
2022/12/19 11:51:43;;;;;;;11.13;5.55;;;14.60;77.50;;;;;;5093357;28;20040;-80
2022/12/19 11:54:29;;;;;;;10.43;5.30;;;14.60;77.60;;;;;;5075162;28;20123;-78
2022/12/19 11:56:55;;;;;;;12.55;5.78;;;14.60;77.40;;;;;;5075290;28;20039;-78
2022/12/19 11:59:30;;;;;;;12.15;5.43;;;14.70;77.20;;;;;;5074756;28;20039;-78
2022/12/19 12:02:11;;;;;;;10.63;5.43;;;14.70;77.10;;;;;;5091671;28;20044;-78
2022/12/19 12:04:58;;;;;;;8.57;5.32;;;14.80;76.80;;;;;;5093654;28;20545;-77
2022/12/19 12:07:31;;;;;;;13.75;5.60;;;14.80;76.50;;;;;;5093058;28;20040;-79
2022/12/19 12:10:05;;;;;;;9.05;5.25;;;14.80;76.50;;;;;;5093245;28;20039;-78
2022/12/19 12:12:33;;;;;;;9.65;4.90;;;14.80;76.20;;;;;;5092988;28;20384;-79
2022/12/19 12:15:31;;;;;;;10.07;4.82;;;14.90;76.20;;;;;;5075521;28;20040;-79
2022/12/19 12:18:11;;;;;;;11.65;5.28;;;15.00;76.10;;;;;;5076031;28;20046;-78
2022/12/19 12:21:14;;;;;;;10.40;4.95;;;15.00;75.90;;;;;;5094067;28;20036;-78
2022/12/19 12:24:10;;;;;;;7.82;4.65;;;15.10;75.80;;;;;;5092669;28;20067;-77
2022/12/19 12:27:04;;;;;;;7.25;4.55;;;15.10;75.30;;;;;;5092726;28;20052;-77
2022/12/19 12:29:42;;;;;;;9.88;4.95;;;15.20;74.90;;;;;;5074147;28;20080;-80
2022/12/19 12:32:41;;;;;;;10.55;5.07;;;15.20;75.10;;;;;;5092756;28;20115;-79
2022/12/19 12:35:18;;;;;;;8.05;5.10;;;15.30;74.90;;;;;;5079896;28;20032;-79
2022/12/19 12:37:59;;;;;;;8.52;5.03;;;15.30;74.50;;;;;;5092328;28;20119;-78
2022/12/19 12:40:43;;;;;;;8.68;5.43;;;15.40;74.60;;;;;;5074514;28;20555;-79
2022/12/19 12:43:27;;;;;;;9.27;4.93;;;15.40;74.70;;;;;;5092044;28;20040;-79
2022/12/19 12:45:53;;;;;;;9.13;5.43;;;15.40;74.50;;;;;;5092239;28;20039;-78
2022/12/19 12:48:34;;;;;;;10.63;4.85;;;15.50;74.70;;;;;;5092343;28;20036;-77
2022/12/19 12:51:00;;;;;;;9.48;5.60;;;15.50;74.40;;;;;;5092341;28;20092;-78
2022/12/19 12:53:39;;;;;;;7.70;4.97;;;15.50;74.50;;;;;;5074336;28;20032;-79
2022/12/19 12:56:07;;;;;;;10.27;4.57;;;15.50;74.30;;;;;;5074268;28;20043;-79
2022/12/19 12:58:50;;;;;;;8.35;4.43;;;15.50;74.10;;;;;;5092230;28;20043;-79
2022/12/19 13:01:28;;;;;;;9.65;5.05;;;15.50;73.50;;;;;;5074227;28;20047;-77
2022/12/19 13:04:02;;;;;;;10.52;5.20;;;15.60;73.40;;;;;;5073788;28;20051;-78
2022/12/19 13:06:49;;;;;;;9.10;4.85;;;15.60;73.70;;;;;;5073581;28;20024;-78
2022/12/19 13:09:27;;;;;;;9.98;4.93;;;15.70;73.40;;;;;;5094621;28;20032;-78